Time;durP1;ratioP1;P1;durP2;ratioP2;P2;SDS_P1;SDS_P2;PMS_P1;PMS_P2;Temp;Humidity;BMP_temperature;BMP_pressure;BME280_temperature;BME280_humidity;BME280_pressure;Samples;Min_cycle;Max_cycle;Signal;HPM_P1;HPM_P2
2023/10/13 00:04:35;;;;;;;26.87;17.75;;;21.50;79.70;;;;;;10823953;33;20028;-71
2023/10/13 00:10:37;;;;;;;30.02;21.80;;;21.40;80.00;;;;;;10823694;33;20032;-71
2023/10/13 00:16:40;;;;;;;27.83;20.17;;;21.40;80.00;;;;;;10823550;33;20024;-71
2023/10/13 00:22:44;;;;;;;25.15;18.23;;;21.40;79.90;;;;;;10822566;33;20024;-71
2023/10/13 00:28:46;;;;;;;23.65;18.05;;;21.40;79.90;;;;;;10824506;32;20024;-71
2023/10/13 00:34:55;;;;;;;28.73;21.90;;;21.40;79.90;;;;;;10830434;33;20398;-71
2023/10/13 00:41:34;;;;;;;22.08;17.35;;;21.40;79.90;;;;;;10826785;33;20051;-71
2023/10/13 00:53:41;;;;;;;23.87;18.75;;;21.30;79.90;;;;;;10829663;33;20398;-71
2023/10/13 00:59:47;;;;;;;29.05;20.83;;;21.30;80.00;;;;;;10830099;33;20031;-71
2023/10/13 01:05:54;;;;;;;25.70;20.70;;;21.40;80.00;;;;;;10828784;33;20011;-71
2023/10/13 01:11:56;;;;;;;28.85;22.85;;;21.30;80.00;;;;;;10828660;33;20028;-71
2023/10/13 01:18:13;;;;;;;24.77;20.10;;;21.30;80.00;;;;;;10828521;33;20094;-71
2023/10/13 01:24:18;;;;;;;27.70;22.40;;;21.30;79.90;;;;;;10827358;33;20019;-71
2023/10/13 01:30:25;;;;;;;32.92;26.17;;;21.30;80.00;;;;;;10828036;33;20077;-72
2023/10/13 01:36:28;;;;;;;25.75;19.40;;;21.30;80.20;;;;;;10825384;33;20047;-71
2023/10/13 01:42:30;;;;;;;21.77;19.45;;;21.30;80.10;;;;;;10828075;32;20046;-71
2023/10/13 01:48:32;;;;;;;28.27;23.35;;;21.30;80.10;;;;;;10827425;33;20047;-71
2023/10/13 01:54:35;;;;;;;28.52;22.55;;;21.30;80.10;;;;;;10828013;33;20051;-72
2023/10/13 02:00:41;;;;;;;25.15;19.30;;;21.30;80.10;;;;;;10827160;33;20051;-71
2023/10/13 02:06:44;;;;;;;30.77;22.45;;;21.20;80.20;;;;;;10825791;33;20061;-71
2023/10/13 02:12:46;;;;;;;29.37;21.75;;;21.20;80.30;;;;;;10827502;33;20295;-72
2023/10/13 02:18:51;;;;;;;26.83;17.85;;;21.20;80.50;;;;;;10826866;33;20034;-72
2023/10/13 02:24:53;;;;;;;34.80;25.73;;;21.20;80.50;;;;;;10826486;33;20051;-71
2023/10/13 02:30:57;;;;;;;26.87;22.23;;;21.20;80.40;;;;;;10826336;33;20028;-72
2023/10/13 02:36:59;;;;;;;35.08;22.40;;;21.10;80.40;;;;;;10826781;33;20424;-71
2023/10/13 02:43:01;;;;;;;24.45;20.45;;;21.10;80.40;;;;;;10825972;33;20059;-71
2023/10/13 02:49:10;;;;;;;27.15;20.77;;;21.10;80.50;;;;;;10825652;33;20024;-71
2023/10/13 02:55:16;;;;;;;29.37;22.05;;;21.10;80.60;;;;;;10826405;32;20342;-71
2023/10/13 03:01:19;;;;;;;28.45;21.80;;;21.10;80.50;;;;;;10825506;33;20086;-71
2023/10/13 03:07:23;;;;;;;26.23;20.92;;;21.10;80.50;;;;;;10827080;33;20074;-71
2023/10/13 03:13:26;;;;;;;25.98;19.20;;;21.10;80.60;;;;;;10824044;33;20063;-72
2023/10/13 03:19:32;;;;;;;26.73;18.90;;;21.00;80.80;;;;;;10824957;33;20042;-72
2023/10/13 03:25:42;;;;;;;28.25;21.90;;;21.00;81.00;;;;;;10825368;33;20437;-71
2023/10/13 03:31:45;;;;;;;32.47;25.77;;;21.00;81.00;;;;;;10825261;33;20307;-71
2023/10/13 03:37:47;;;;;;;27.30;20.02;;;21.00;81.00;;;;;;10824280;33;20020;-71
2023/10/13 03:43:52;;;;;;;34.45;24.10;;;21.00;80.90;;;;;;10825571;33;20020;-72
2023/10/13 03:50:15;;;;;;;27.33;22.70;;;21.00;81.10;;;;;;10824428;33;20031;-72
2023/10/13 03:56:26;;;;;;;27.58;20.33;;;21.00;81.10;;;;;;10824802;33;20024;-72
2023/10/13 04:02:28;;;;;;;27.92;21.67;;;21.00;80.90;;;;;;10824429;33;20420;-71
2023/10/13 04:21:07;;;;;;;37.55;27.83;;;21.00;81.00;;;;;;10830197;33;20073;-72
2023/10/13 04:33:35;;;;;;;32.25;24.90;;;21.00;81.00;;;;;;10826152;33;20058;-72
2023/10/13 04:39:39;;;;;;;34.70;22.90;;;21.00;81.10;;;;;;10829690;33;20056;-72
2023/10/13 04:45:53;;;;;;;33.90;26.67;;;21.00;81.20;;;;;;10826963;33;20099;-72
2023/10/13 04:52:00;;;;;;;36.95;26.37;;;21.00;81.10;;;;;;10829115;33;20051;-72
2023/10/13 04:58:41;;;;;;;29.60;24.77;;;20.90;81.10;;;;;;10827129;33;20046;-72
2023/10/13 05:05:11;;;;;;;32.63;24.65;;;20.90;81.00;;;;;;10821344;32;20067;-71
2023/10/13 06:33:55;;;;;;;26.98;21.25;;;21.00;81.50;;;;;;10827633;32;20032;-71
2023/10/13 06:40:06;;;;;;;29.70;23.75;;;21.00;81.60;;;;;;10826972;33;20016;-71
2023/10/13 06:51:26;;;;;;;32.92;22.45;;;21.00;81.70;;;;;;10855277;32;7462562;-72
2023/10/13 06:57:33;;;;;;;33.00;23.10;;;21.10;81.50;;;;;;11051354;32;20392;-73
2023/10/13 07:03:36;;;;;;;26.15;19.10;;;21.10;81.60;;;;;;11050087;32;20018;-72
2023/10/13 07:09:41;;;;;;;22.83;19.17;;;21.10;81.50;;;;;;11050195;32;20027;-72
2023/10/13 07:15:46;;;;;;;29.17;20.05;;;21.10;81.50;;;;;;11050241;32;20356;-72
2023/10/13 07:21:49;;;;;;;25.85;21.77;;;21.10;81.70;;;;;;11050284;32;20022;-73
2023/10/13 07:27:53;;;;;;;32.50;22.02;;;21.20;81.80;;;;;;11047707;32;20034;-72
2023/10/13 07:34:04;;;;;;;31.08;20.70;;;21.20;81.70;;;;;;11050519;32;20041;-73
2023/10/13 07:40:22;;;;;;;32.47;25.15;;;21.20;81.60;;;;;;11050252;32;20018;-72
2023/10/13 07:46:31;;;;;;;29.23;20.43;;;21.30;81.70;;;;;;11049573;32;20052;-72
2023/10/13 07:52:36;;;;;;;31.70;23.58;;;21.30;81.80;;;;;;11049848;32;20163;-72
2023/10/13 07:58:47;;;;;;;26.33;22.70;;;21.30;81.80;;;;;;11041198;32;20388;-72
2023/10/13 08:04:49;;;;;;;27.23;21.85;;;21.30;81.90;;;;;;11024279;32;20022;-73
2023/10/13 08:11:00;;;;;;;28.90;21.02;;;21.30;81.90;;;;;;11022294;32;20179;-73
2023/10/13 08:17:07;;;;;;;47.25;29.48;;;21.30;82.00;;;;;;11022158;32;20042;-72
2023/10/13 08:23:34;;;;;;;39.03;27.95;;;21.40;81.70;;;;;;10995273;32;20030;-71
2023/10/13 08:36:26;;;;;;;31.02;24.90;;;21.60;81.40;;;;;;11021745;32;20423;-72
2023/10/13 08:48:47;;;;;;;35.88;24.45;;;21.70;81.30;;;;;;11021091;32;20044;-73
2023/10/13 08:55:02;;;;;;;46.25;29.80;;;21.80;81.20;;;;;;11020640;32;20022;-72
2023/10/13 09:01:34;;;;;;;38.85;31.17;;;21.80;81.10;;;;;;11021613;32;20023;-72
2023/10/13 09:07:47;;;;;;;38.20;27.87;;;21.90;81.00;;;;;;11019762;32;20018;-72
2023/10/13 09:13:51;;;;;;;35.05;24.83;;;22.00;80.90;;;;;;11005189;32;20030;-72
2023/10/13 09:19:57;;;;;;;40.17;29.58;;;22.00;80.70;;;;;;11019488;32;20314;-72
2023/10/13 09:26:12;;;;;;;37.70;27.20;;;22.10;80.60;;;;;;11016069;32;20030;-72
2023/10/13 09:32:15;;;;;;;62.35;30.02;;;22.20;80.50;;;;;;10981071;32;20006;-72
2023/10/13 09:38:17;;;;;;;27.77;17.27;;;22.20;80.40;;;;;;10979438;32;20404;-72
2023/10/13 09:44:21;;;;;;;42.17;31.73;;;22.30;80.20;;;;;;10980334;32;20421;-73
2023/10/13 09:50:33;;;;;;;40.90;30.27;;;22.30;80.10;;;;;;10978925;32;20388;-73
2023/10/13 09:57:12;;;;;;;34.00;28.50;;;22.30;80.10;;;;;;10979919;32;20381;-71
2023/10/13 10:03:14;;;;;;;32.08;25.33;;;22.50;79.90;;;;;;10826695;32;20027;-72
2023/10/13 10:09:21;;;;;;;44.88;29.77;;;22.60;79.70;;;;;;10826172;32;20024;-73
2023/10/13 10:15:43;;;;;;;44.50;32.80;;;22.60;79.60;;;;;;10825714;32;20500;-73
2023/10/13 10:21:45;;;;;;;34.95;28.23;;;22.50;79.60;;;;;;10825536;32;20024;-73
2023/10/13 10:27:58;;;;;;;38.45;30.88;;;22.60;79.60;;;;;;10825270;32;20110;-73
2023/10/13 10:34:21;;;;;;;46.15;31.58;;;22.60;79.50;;;;;;10827503;32;20020;-73
2023/10/13 10:40:47;;;;;;;52.60;35.03;;;22.70;79.40;;;;;;10978779;32;20064;-72
2023/10/13 10:46:56;;;;;;;48.13;32.42;;;22.80;79.20;;;;;;10978541;32;20026;-72
2023/10/13 10:52:59;;;;;;;50.47;38.60;;;23.00;79.00;;;;;;10978520;32;20041;-73
2023/10/13 10:59:04;;;;;;;46.47;32.47;;;23.00;78.80;;;;;;11008111;32;20015;-72
2023/10/13 11:05:09;;;;;;;40.63;28.48;;;23.10;78.70;;;;;;11016421;32;20022;-72
2023/10/13 11:11:18;;;;;;;43.33;30.25;;;23.30;78.40;;;;;;11016015;32;20015;-72
2023/10/13 11:17:26;;;;;;;40.25;29.80;;;23.40;78.20;;;;;;11015647;32;20400;-72
2023/10/13 11:23:28;;;;;;;;;;;23.60;77.90;;;;;;11016119;32;20015;-71
2023/10/13 11:29:39;;;;;;;36.50;27.33;;;23.60;77.80;;;;;;11017230;32;19925;-71
2023/10/13 11:41:55;;;;;;;37.42;27.90;;;23.70;77.30;;;;;;11023306;32;20015;-72
2023/10/13 11:48:00;;;;;;;47.85;29.92;;;23.80;77.10;;;;;;11022945;32;20025;-72
2023/10/13 11:54:04;;;;;;;48.00;28.45;;;24.20;76.60;;;;;;11022862;32;20026;-72
2023/10/13 12:00:32;;;;;;;39.08;25.58;;;24.30;76.00;;;;;;11022640;32;20400;-71
2023/10/13 12:12:48;;;;;;;30.45;22.75;;;24.40;74.90;;;;;;11020416;32;20041;-71
2023/10/13 12:18:53;;;;;;;28.92;19.50;;;24.40;74.80;;;;;;11021683;32;20022;-71
2023/10/13 12:24:56;;;;;;;34.95;24.50;;;24.50;74.60;;;;;;11021645;32;20022;-72
2023/10/13 12:31:06;;;;;;;39.05;25.60;;;24.50;74.00;;;;;;11021450;32;20027;-72
2023/10/13 12:37:30;;;;;;;37.08;26.92;;;24.60;73.60;;;;;;11021127;32;20021;-71
2023/10/13 12:50:08;;;;;;;27.35;21.87;;;24.70;73.10;;;;;;11020837;32;20053;-72
2023/10/13 12:56:11;;;;;;;46.95;33.78;;;24.80;73.00;;;;;;11020837;32;20045;-71
2023/10/13 13:02:16;;;;;;;35.97;25.65;;;24.80;72.10;;;;;;11016187;32;20061;-71
2023/10/13 13:08:22;;;;;;;30.73;24.15;;;24.80;72.00;;;;;;11018727;32;20057;-73
2023/10/13 13:20:53;;;;;;;30.25;23.75;;;24.90;71.60;;;;;;10866092;32;20027;-71
2023/10/13 13:26:55;;;;;;;28.00;20.60;;;25.00;71.40;;;;;;10865194;32;20417;-71
2023/10/13 13:33:03;;;;;;;39.47;23.05;;;25.00;71.20;;;;;;10865632;32;20024;-73
2023/10/13 13:39:06;;;;;;;31.42;21.73;;;25.00;71.00;;;;;;10864693;32;20028;-70
2023/10/13 13:45:21;;;;;;;28.33;20.12;;;25.00;71.10;;;;;;10861667;32;20023;-70
2023/10/13 13:51:27;;;;;;;32.40;22.05;;;25.00;70.50;;;;;;10864781;32;20097;-71
2023/10/13 13:57:30;;;;;;;29.12;22.77;;;25.00;70.20;;;;;;10950273;32;20018;-70
2023/10/13 14:03:32;;;;;;;26.48;18.67;;;25.10;70.20;;;;;;10980868;32;20014;-69
2023/10/13 14:09:40;;;;;;;24.17;20.12;;;25.10;70.30;;;;;;10979986;32;20041;-70
2023/10/13 14:15:46;;;;;;;25.92;18.83;;;25.20;70.50;;;;;;10967461;32;20325;-70
2023/10/13 14:21:53;;;;;;;23.38;15.32;;;25.20;70.40;;;;;;10979692;32;20049;-70
2023/10/13 14:27:58;;;;;;;21.97;17.27;;;25.30;70.30;;;;;;10979485;32;20048;-70
2023/10/13 14:34:00;;;;;;;25.15;18.50;;;25.40;70.10;;;;;;10979881;32;20002;-70
2023/10/13 14:40:02;;;;;;;23.73;18.45;;;25.30;70.10;;;;;;10978900;32;20018;-69
2023/10/13 14:46:08;;;;;;;29.92;17.83;;;25.10;70.60;;;;;;10970588;27;20040;-70
2023/10/13 14:52:10;;;;;;;26.80;17.67;;;25.00;70.90;;;;;;10862023;32;20004;-70
2023/10/13 14:58:16;;;;;;;36.55;18.10;;;25.00;71.00;;;;;;10847509;32;20401;-74
2023/10/13 15:04:18;;;;;;;37.33;30.33;;;25.00;71.10;;;;;;10832851;32;20016;-74
2023/10/13 15:10:20;;;;;;;42.35;30.27;;;24.90;71.00;;;;;;10823187;33;20066;-74
2023/10/13 15:16:28;;;;;;;44.40;27.20;;;24.80;71.50;;;;;;10830259;33;20326;-73
2023/10/13 15:22:31;;;;;;;31.60;24.58;;;24.60;72.10;;;;;;10816250;33;20350;-73
2023/10/13 15:28:33;;;;;;;36.75;24.92;;;24.50;72.70;;;;;;10828921;33;20333;-74
2023/10/13 15:34:37;;;;;;;43.92;21.62;;;24.50;72.80;;;;;;10829779;33;20365;-74
2023/10/13 15:40:46;;;;;;;28.05;22.70;;;24.80;72.30;;;;;;10846881;32;20036;-74
2023/10/13 15:46:49;;;;;;;27.90;21.33;;;24.80;72.10;;;;;;10866011;32;20341;-74
2023/10/13 15:52:51;;;;;;;37.05;24.17;;;24.60;72.40;;;;;;10865557;32;20038;-74
2023/10/13 15:58:55;;;;;;;29.67;21.58;;;24.40;72.80;;;;;;10865014;32;20019;-73
2023/10/13 16:04:59;;;;;;;29.12;22.17;;;24.30;73.00;;;;;;10865007;32;20012;-74
2023/10/13 16:11:13;;;;;;;36.08;20.83;;;24.10;73.30;;;;;;10865130;32;20020;-74
2023/10/13 16:17:15;;;;;;;31.05;20.60;;;24.00;73.60;;;;;;10865390;32;20019;-73
2023/10/13 16:23:17;;;;;;;29.33;19.05;;;23.90;73.90;;;;;;10865388;32;20049;-74
2023/10/13 16:29:19;;;;;;;29.77;19.30;;;23.90;74.00;;;;;;10865329;32;20379;-74
2023/10/13 16:35:22;;;;;;;25.05;20.02;;;23.80;74.10;;;;;;10851157;32;20046;-73
2023/10/13 16:41:26;;;;;;;30.20;21.58;;;23.80;74.30;;;;;;10864785;32;20051;-70
2023/10/13 16:47:28;;;;;;;24.48;19.87;;;23.70;74.40;;;;;;10864653;32;20021;-70
2023/10/13 16:53:31;;;;;;;25.92;19.95;;;23.70;74.60;;;;;;10864090;32;20038;-70
2023/10/13 16:59:35;;;;;;;26.48;19.70;;;23.60;74.70;;;;;;10864467;32;20440;-70
2023/10/13 17:05:45;;;;;;;24.08;19.02;;;23.60;74.70;;;;;;10863471;32;20034;-70
2023/10/13 17:11:48;;;;;;;28.05;20.10;;;23.50;74.80;;;;;;10850990;32;20020;-70
2023/10/13 17:18:05;;;;;;;27.65;21.12;;;23.50;75.00;;;;;;10863470;32;20020;-70
2023/10/13 17:24:07;;;;;;;23.98;16.85;;;23.40;75.20;;;;;;10863144;32;20023;-70
2023/10/13 17:30:10;;;;;;;27.90;18.17;;;23.40;75.20;;;;;;10862159;32;20021;-70
2023/10/13 17:36:12;;;;;;;22.77;17.70;;;23.30;75.50;;;;;;10862543;32;20038;-70
2023/10/13 17:42:14;;;;;;;22.27;15.55;;;23.30;75.60;;;;;;10862529;32;20059;-70
2023/10/13 17:48:17;;;;;;;19.00;14.25;;;23.30;75.60;;;;;;10862239;32;20402;-70
2023/10/13 17:54:20;;;;;;;17.00;13.35;;;23.20;75.70;;;;;;10862182;32;20023;-70
2023/10/13 18:00:25;;;;;;;22.67;14.55;;;23.20;75.80;;;;;;10861903;32;20330;-70
2023/10/13 18:06:26;;;;;;;26.95;13.60;;;23.20;75.90;;;;;;10848130;32;20008;-71
2023/10/13 18:12:28;;;;;;;16.92;13.38;;;23.20;75.90;;;;;;10843286;32;20058;-70
2023/10/13 18:18:30;;;;;;;20.30;13.45;;;23.00;76.10;;;;;;10854099;32;20439;-70
2023/10/13 18:24:31;;;;;;;21.48;14.27;;;23.00;76.20;;;;;;10854072;32;20016;-70
2023/10/13 18:30:34;;;;;;;15.93;11.68;;;23.00;76.20;;;;;;10843333;32;20020;-70
2023/10/13 18:36:35;;;;;;;16.90;11.82;;;22.90;76.30;;;;;;10842843;32;20031;-70
2023/10/13 18:42:42;;;;;;;18.62;12.30;;;22.90;76.40;;;;;;10830357;32;20031;-70
2023/10/13 18:48:45;;;;;;;15.60;11.65;;;22.80;76.50;;;;;;10843409;32;20052;-70
2023/10/13 18:54:47;;;;;;;15.80;11.43;;;22.80;76.50;;;;;;10858288;32;20023;-70
2023/10/13 19:00:49;;;;;;;14.23;10.38;;;22.80;76.60;;;;;;10830388;32;20024;-70
2023/10/13 19:06:51;;;;;;;6.53;4.30;;;22.80;76.50;;;;;;10807278;32;20061;-70
2023/10/13 19:12:57;;;;;;;16.60;10.98;;;22.80;76.50;;;;;;10822976;33;20031;-70
2023/10/13 19:19:03;;;;;;;14.55;7.87;;;22.80;76.60;;;;;;10822849;33;20078;-73
2023/10/13 19:25:10;;;;;;;21.73;12.27;;;22.70;76.50;;;;;;10819103;32;20078;-73
2023/10/13 19:31:15;;;;;;;5.30;3.57;;;22.60;76.60;;;;;;10818651;33;20012;-73
2023/10/13 19:37:16;;;;;;;10.88;7.22;;;22.60;76.60;;;;;;10819306;32;20043;-73
2023/10/13 19:43:20;;;;;;;11.02;8.57;;;22.60;76.70;;;;;;10818562;33;20420;-74
2023/10/13 19:49:25;;;;;;;17.42;12.68;;;22.60;76.80;;;;;;10817770;33;20024;-73
2023/10/13 19:55:30;;;;;;;20.55;14.27;;;22.50;76.90;;;;;;10796602;32;20055;-73
2023/10/13 20:01:35;;;;;;;14.02;10.15;;;22.50;76.90;;;;;;10824269;33;20015;-73
2023/10/13 20:07:41;;;;;;;18.23;14.63;;;22.50;77.00;;;;;;10823953;33;20028;-73
2023/10/13 20:13:47;;;;;;;16.25;13.05;;;22.40;77.10;;;;;;10823974;33;20066;-73
2023/10/13 20:19:49;;;;;;;17.40;10.15;;;22.40;77.20;;;;;;10823710;33;20020;-73
2023/10/13 20:25:51;;;;;;;26.75;15.80;;;22.30;77.20;;;;;;10844448;32;20401;-73
2023/10/13 20:31:54;;;;;;;19.58;14.80;;;22.30;77.30;;;;;;10865473;32;20042;-73
2023/10/13 20:37:56;;;;;;;19.33;13.32;;;22.30;77.30;;;;;;10865085;32;20046;-73
2023/10/13 20:43:58;;;;;;;17.20;14.07;;;22.30;77.60;;;;;;10863900;32;20054;-73
2023/10/13 20:50:00;;;;;;;16.85;12.95;;;22.20;77.70;;;;;;10860859;32;20024;-73
2023/10/13 20:56:16;;;;;;;17.30;12.75;;;22.20;77.70;;;;;;10864205;32;20385;-70
2023/10/13 21:02:22;;;;;;;14.10;10.35;;;22.20;77.80;;;;;;10864033;32;20046;-70
2023/10/13 21:08:24;;;;;;;17.95;14.45;;;22.20;78.00;;;;;;10862990;32;20059;-70
2023/10/13 21:14:27;;;;;;;16.85;13.18;;;22.20;78.20;;;;;;10863640;32;20024;-70
2023/10/13 21:20:29;;;;;;;14.87;11.63;;;22.20;78.20;;;;;;10863335;32;20175;-69
2023/10/13 21:26:31;;;;;;;17.83;13.68;;;22.10;78.20;;;;;;10863308;32;20027;-70
2023/10/13 21:32:34;;;;;;;19.10;14.02;;;22.00;78.30;;;;;;10862139;32;20214;-69
2023/10/13 21:38:36;;;;;;;14.23;10.38;;;22.00;78.30;;;;;;10864348;32;20028;-70
2023/10/13 21:44:38;;;;;;;19.70;12.48;;;22.00;78.50;;;;;;10861822;32;20031;-69
2023/10/13 21:50:41;;;;;;;18.00;12.43;;;21.90;78.50;;;;;;10862466;32;20112;-69
2023/10/13 21:56:44;;;;;;;15.18;12.05;;;21.90;78.60;;;;;;10862746;32;20299;-69
2023/10/13 22:02:47;;;;;;;15.02;13.07;;;21.90;78.60;;;;;;10862807;32;20023;-69
2023/10/13 22:08:50;;;;;;;17.87;11.73;;;21.80;78.70;;;;;;10862119;32;20046;-69
2023/10/13 22:14:52;;;;;;;21.02;10.15;;;21.80;79.00;;;;;;10862115;32;20028;-69
2023/10/13 22:20:55;;;;;;;16.08;12.02;;;21.80;79.00;;;;;;10861479;32;20051;-69
2023/10/13 22:26:58;;;;;;;18.10;13.10;;;21.70;79.10;;;;;;10861533;32;20050;-69
2023/10/13 22:33:01;;;;;;;15.82;11.20;;;21.60;79.20;;;;;;10862063;32;20431;-69
2023/10/13 22:39:15;;;;;;;12.43;10.38;;;21.60;79.30;;;;;;10861414;32;20047;-69
2023/10/13 22:45:18;;;;;;;17.75;13.75;;;21.50;79.40;;;;;;10861348;32;20020;-69
2023/10/13 22:51:21;;;;;;;16.02;12.63;;;21.40;79.40;;;;;;10862094;27;20374;-70
2023/10/13 22:57:23;;;;;;;19.52;12.90;;;21.30;79.50;;;;;;10858681;32;20046;-69
2023/10/13 23:03:35;;;;;;;16.02;11.93;;;21.30;79.50;;;;;;10861120;32;20086;-69
2023/10/13 23:09:47;;;;;;;17.40;15.20;;;21.30;79.50;;;;;;10860855;32;20024;-69
2023/10/13 23:15:53;;;;;;;19.30;13.23;;;21.30;79.60;;;;;;10860786;32;20015;-69
2023/10/13 23:21:55;;;;;;;18.65;13.35;;;21.30;79.70;;;;;;10834781;32;20067;-69
2023/10/13 23:27:58;;;;;;;18.10;14.95;;;21.20;79.70;;;;;;10861666;32;20047;-70
2023/10/13 23:34:00;;;;;;;19.62;14.93;;;21.20;79.80;;;;;;10867786;32;20015;-69
2023/10/13 23:40:11;;;;;;;18.90;13.13;;;21.10;79.90;;;;;;10867446;32;20390;-69
2023/10/13 23:46:34;;;;;;;20.83;14.10;;;21.10;79.90;;;;;;10866395;32;20023;-69
2023/10/13 23:52:38;;;;;;;18.00;15.60;;;21.10;80.00;;;;;;10867417;32;20338;-69
2023/10/13 23:58:57;;;;;;;18.05;13.60;;;21.00;80.10;;;;;;10866711;32;20020;-69
